sensor_id;sensor_type;location;lat;lon;timestamp;P1;durP1;ratioP1;P2;durP2;ratioP2
80408;SDS011;69741;49.464;10.986;2023-04-30T00:02:09;7.90;;;4.23;;
80408;SDS011;69741;49.464;10.986;2023-04-30T00:04:34;11.03;;;4.93;;
80408;SDS011;69741;49.464;10.986;2023-04-30T00:07:00;7.15;;;3.83;;
80408;SDS011;69741;49.464;10.986;2023-04-30T00:09:25;12.25;;;4.10;;
80408;SDS011;69741;49.464;10.986;2023-04-30T00:11:51;9.32;;;4.38;;
80408;SDS011;69741;49.464;10.986;2023-04-30T00:14:16;8.80;;;4.25;;
80408;SDS011;69741;49.464;10.986;2023-04-30T00:16:41;8.70;;;4.93;;
80408;SDS011;69741;49.464;10.986;2023-04-30T00:19:06;9.67;;;4.90;;
80408;SDS011;69741;49.464;10.986;2023-04-30T00:21:32;8.20;;;4.55;;
80408;SDS011;69741;49.464;10.986;2023-04-30T00:23:57;10.83;;;4.57;;
80408;SDS011;69741;49.464;10.986;2023-04-30T00:26:24;10.70;;;5.07;;
80408;SDS011;69741;49.464;10.986;2023-04-30T00:28:49;9.13;;;4.68;;
80408;SDS011;69741;49.464;10.986;2023-04-30T00:31:14;10.35;;;5.07;;
80408;SDS011;69741;49.464;10.986;2023-04-30T00:33:39;8.45;;;4.60;;
80408;SDS011;69741;49.464;10.986;2023-04-30T00:36:05;10.20;;;5.27;;
80408;SDS011;69741;49.464;10.986;2023-04-30T00:38:30;10.52;;;5.18;;
80408;SDS011;69741;49.464;10.986;2023-04-30T00:40:55;9.95;;;5.03;;
80408;SDS011;69741;49.464;10.986;2023-04-30T00:43:20;8.70;;;4.13;;
80408;SDS011;69741;49.464;10.986;2023-04-30T00:45:45;9.13;;;5.88;;
80408;SDS011;69741;49.464;10.986;2023-04-30T00:48:11;10.52;;;5.03;;
80408;SDS011;69741;49.464;10.986;2023-04-30T00:50:36;10.37;;;4.73;;
80408;SDS011;69741;49.464;10.986;2023-04-30T00:53:01;9.80;;;4.80;;
80408;SDS011;69741;49.464;10.986;2023-04-30T00:55:27;8.02;;;4.10;;
80408;SDS011;69741;49.464;10.986;2023-04-30T00:57:52;10.27;;;4.65;;
80408;SDS011;69741;49.464;10.986;2023-04-30T01:00:18;8.98;;;4.95;;
80408;SDS011;69741;49.464;10.986;2023-04-30T01:02:43;9.00;;;4.43;;
80408;SDS011;69741;49.464;10.986;2023-04-30T01:05:08;8.68;;;4.40;;
80408;SDS011;69741;49.464;10.986;2023-04-30T01:07:34;9.77;;;4.82;;
80408;SDS011;69741;49.464;10.986;2023-04-30T01:09:59;10.65;;;4.70;;
80408;SDS011;69741;49.464;10.986;2023-04-30T01:12:28;9.63;;;4.97;;
80408;SDS011;69741;49.464;10.986;2023-04-30T01:17:30;10.73;;;4.82;;
80408;SDS011;69741;49.464;10.986;2023-04-30T01:19:56;11.30;;;4.75;;
80408;SDS011;69741;49.464;10.986;2023-04-30T01:30:15;12.02;;;4.93;;
80408;SDS011;69741;49.464;10.986;2023-04-30T01:32:42;9.38;;;4.32;;
80408;SDS011;69741;49.464;10.986;2023-04-30T01:35:07;9.20;;;4.85;;
80408;SDS011;69741;49.464;10.986;2023-04-30T01:37:36;10.25;;;5.43;;
80408;SDS011;69741;49.464;10.986;2023-04-30T01:42:40;11.25;;;5.15;;
80408;SDS011;69741;49.464;10.986;2023-04-30T01:45:19;10.98;;;4.63;;
80408;SDS011;69741;49.464;10.986;2023-04-30T01:52:59;12.02;;;5.30;;
80408;SDS011;69741;49.464;10.986;2023-04-30T01:55:32;11.25;;;6.13;;
80408;SDS011;69741;49.464;10.986;2023-04-30T01:57:59;11.15;;;4.95;;
80408;SDS011;69741;49.464;10.986;2023-04-30T02:00:25;10.95;;;5.13;;
80408;SDS011;69741;49.464;10.986;2023-04-30T02:02:51;10.43;;;5.10;;
80408;SDS011;69741;49.464;10.986;2023-04-30T02:05:16;8.37;;;4.13;;
80408;SDS011;69741;49.464;10.986;2023-04-30T02:07:42;11.07;;;4.83;;
80408;SDS011;69741;49.464;10.986;2023-04-30T02:10:09;14.18;;;5.25;;
80408;SDS011;69741;49.464;10.986;2023-04-30T02:12:35;9.77;;;5.28;;
80408;SDS011;69741;49.464;10.986;2023-04-30T02:15:01;9.13;;;4.47;;
80408;SDS011;69741;49.464;10.986;2023-04-30T02:17:26;9.80;;;5.38;;
80408;SDS011;69741;49.464;10.986;2023-04-30T02:19:51;8.88;;;4.70;;
80408;SDS011;69741;49.464;10.986;2023-04-30T02:22:17;12.33;;;5.93;;
80408;SDS011;69741;49.464;10.986;2023-04-30T02:24:42;9.75;;;4.93;;
80408;SDS011;69741;49.464;10.986;2023-04-30T02:27:07;13.97;;;5.50;;
80408;SDS011;69741;49.464;10.986;2023-04-30T02:29:32;9.53;;;4.80;;
80408;SDS011;69741;49.464;10.986;2023-04-30T02:31:58;12.33;;;6.37;;
80408;SDS011;69741;49.464;10.986;2023-04-30T02:34:23;9.35;;;4.70;;
80408;SDS011;69741;49.464;10.986;2023-04-30T02:36:48;10.40;;;5.60;;
80408;SDS011;69741;49.464;10.986;2023-04-30T02:39:13;9.27;;;5.38;;
80408;SDS011;69741;49.464;10.986;2023-04-30T02:41:38;8.65;;;4.43;;
80408;SDS011;69741;49.464;10.986;2023-04-30T02:44:04;10.90;;;5.63;;
80408;SDS011;69741;49.464;10.986;2023-04-30T02:46:29;12.93;;;5.20;;
80408;SDS011;69741;49.464;10.986;2023-04-30T02:48:54;11.57;;;5.23;;
80408;SDS011;69741;49.464;10.986;2023-04-30T02:51:19;10.73;;;5.37;;
80408;SDS011;69741;49.464;10.986;2023-04-30T02:53:44;13.63;;;6.72;;
80408;SDS011;69741;49.464;10.986;2023-04-30T02:56:10;12.20;;;5.73;;
80408;SDS011;69741;49.464;10.986;2023-04-30T02:58:35;11.73;;;6.53;;
80408;SDS011;69741;49.464;10.986;2023-04-30T03:01:00;12.53;;;6.27;;
80408;SDS011;69741;49.464;10.986;2023-04-30T03:03:25;12.27;;;5.00;;
80408;SDS011;69741;49.464;10.986;2023-04-30T03:05:50;11.13;;;5.13;;
80408;SDS011;69741;49.464;10.986;2023-04-30T03:08:15;12.18;;;6.88;;
80408;SDS011;69741;49.464;10.986;2023-04-30T03:10:41;12.63;;;6.28;;
80408;SDS011;69741;49.464;10.986;2023-04-30T03:13:06;12.57;;;6.05;;
80408;SDS011;69741;49.464;10.986;2023-04-30T03:15:31;10.37;;;5.17;;
80408;SDS011;69741;49.464;10.986;2023-04-30T03:17:56;11.52;;;6.30;;
80408;SDS011;69741;49.464;10.986;2023-04-30T03:20:22;13.20;;;6.10;;
80408;SDS011;69741;49.464;10.986;2023-04-30T03:22:47;11.23;;;4.70;;
80408;SDS011;69741;49.464;10.986;2023-04-30T03:25:12;9.50;;;5.40;;
80408;SDS011;69741;49.464;10.986;2023-04-30T03:27:37;11.13;;;6.37;;
80408;SDS011;69741;49.464;10.986;2023-04-30T03:30:02;10.27;;;5.80;;
80408;SDS011;69741;49.464;10.986;2023-04-30T03:32:28;12.55;;;6.22;;
80408;SDS011;69741;49.464;10.986;2023-04-30T03:34:53;10.98;;;5.25;;
80408;SDS011;69741;49.464;10.986;2023-04-30T03:37:18;13.43;;;6.67;;
80408;SDS011;69741;49.464;10.986;2023-04-30T03:39:43;10.60;;;5.38;;
80408;SDS011;69741;49.464;10.986;2023-04-30T03:42:08;13.57;;;6.22;;
80408;SDS011;69741;49.464;10.986;2023-04-30T03:44:33;10.93;;;5.63;;
80408;SDS011;69741;49.464;10.986;2023-04-30T03:46:58;11.23;;;5.55;;
80408;SDS011;69741;49.464;10.986;2023-04-30T03:49:24;11.17;;;6.27;;
80408;SDS011;69741;49.464;10.986;2023-04-30T03:51:49;12.23;;;6.50;;
80408;SDS011;69741;49.464;10.986;2023-04-30T03:54:14;9.87;;;6.20;;
80408;SDS011;69741;49.464;10.986;2023-04-30T03:56:39;11.35;;;6.03;;
80408;SDS011;69741;49.464;10.986;2023-04-30T03:59:05;10.70;;;5.70;;
80408;SDS011;69741;49.464;10.986;2023-04-30T04:01:30;13.30;;;6.10;;
80408;SDS011;69741;49.464;10.986;2023-04-30T04:03:55;11.30;;;5.07;;
80408;SDS011;69741;49.464;10.986;2023-04-30T04:06:20;11.93;;;5.70;;
80408;SDS011;69741;49.464;10.986;2023-04-30T04:08:46;11.75;;;5.75;;
80408;SDS011;69741;49.464;10.986;2023-04-30T04:11:11;11.07;;;5.83;;
80408;SDS011;69741;49.464;10.986;2023-04-30T04:13:36;13.57;;;5.90;;
80408;SDS011;69741;49.464;10.986;2023-04-30T04:16:02;12.83;;;5.97;;
80408;SDS011;69741;49.464;10.986;2023-04-30T04:18:27;12.23;;;5.53;;
80408;SDS011;69741;49.464;10.986;2023-04-30T04:20:53;10.98;;;5.50;;
80408;SDS011;69741;49.464;10.986;2023-04-30T04:23:18;13.98;;;6.68;;
80408;SDS011;69741;49.464;10.986;2023-04-30T04:25:44;10.35;;;5.45;;
80408;SDS011;69741;49.464;10.986;2023-04-30T04:28:10;12.32;;;6.63;;
80408;SDS011;69741;49.464;10.986;2023-04-30T04:30:35;11.93;;;5.97;;
80408;SDS011;69741;49.464;10.986;2023-04-30T04:33:01;11.38;;;6.20;;
80408;SDS011;69741;49.464;10.986;2023-04-30T04:35:26;9.57;;;5.00;;
80408;SDS011;69741;49.464;10.986;2023-04-30T04:37:52;13.70;;;6.07;;
80408;SDS011;69741;49.464;10.986;2023-04-30T04:40:17;14.87;;;7.40;;
80408;SDS011;69741;49.464;10.986;2023-04-30T04:42:42;16.47;;;6.73;;
80408;SDS011;69741;49.464;10.986;2023-04-30T04:45:07;12.10;;;6.37;;
80408;SDS011;69741;49.464;10.986;2023-04-30T04:47:33;14.23;;;6.68;;
80408;SDS011;69741;49.464;10.986;2023-04-30T04:49:59;12.38;;;5.95;;
80408;SDS011;69741;49.464;10.986;2023-04-30T04:52:24;11.45;;;6.60;;
80408;SDS011;69741;49.464;10.986;2023-04-30T04:54:49;11.70;;;6.47;;
80408;SDS011;69741;49.464;10.986;2023-04-30T04:57:15;9.55;;;5.13;;
80408;SDS011;69741;49.464;10.986;2023-04-30T04:59:40;9.43;;;5.60;;
80408;SDS011;69741;49.464;10.986;2023-04-30T05:02:05;13.87;;;5.87;;
80408;SDS011;69741;49.464;10.986;2023-04-30T05:04:30;12.00;;;5.93;;
80408;SDS011;69741;49.464;10.986;2023-04-30T05:06:56;10.40;;;6.47;;
80408;SDS011;69741;49.464;10.986;2023-04-30T05:09:21;12.37;;;5.63;;
80408;SDS011;69741;49.464;10.986;2023-04-30T05:11:46;12.97;;;6.53;;
80408;SDS011;69741;49.464;10.986;2023-04-30T05:14:13;10.68;;;5.78;;
80408;SDS011;69741;49.464;10.986;2023-04-30T05:16:38;10.20;;;5.00;;
80408;SDS011;69741;49.464;10.986;2023-04-30T05:19:03;11.20;;;5.60;;
80408;SDS011;69741;49.464;10.986;2023-04-30T05:21:28;11.20;;;5.93;;
80408;SDS011;69741;49.464;10.986;2023-04-30T05:23:54;10.87;;;5.83;;
80408;SDS011;69741;49.464;10.986;2023-04-30T05:26:19;11.77;;;5.78;;
80408;SDS011;69741;49.464;10.986;2023-04-30T05:28:44;13.73;;;5.97;;
80408;SDS011;69741;49.464;10.986;2023-04-30T05:31:09;12.95;;;5.95;;
80408;SDS011;69741;49.464;10.986;2023-04-30T05:33:34;11.65;;;5.82;;
80408;SDS011;69741;49.464;10.986;2023-04-30T05:36:01;10.68;;;5.80;;
80408;SDS011;69741;49.464;10.986;2023-04-30T05:38:26;10.87;;;6.87;;
80408;SDS011;69741;49.464;10.986;2023-04-30T05:40:51;13.45;;;6.60;;
80408;SDS011;69741;49.464;10.986;2023-04-30T05:43:16;12.60;;;5.63;;
80408;SDS011;69741;49.464;10.986;2023-04-30T05:45:41;12.55;;;5.88;;
80408;SDS011;69741;49.464;10.986;2023-04-30T05:48:06;10.83;;;5.17;;
80408;SDS011;69741;49.464;10.986;2023-04-30T05:50:32;12.10;;;6.00;;
80408;SDS011;69741;49.464;10.986;2023-04-30T05:52:57;10.27;;;4.90;;
80408;SDS011;69741;49.464;10.986;2023-04-30T05:55:22;10.43;;;6.22;;
80408;SDS011;69741;49.464;10.986;2023-04-30T05:57:47;11.40;;;6.00;;
80408;SDS011;69741;49.464;10.986;2023-04-30T06:00:12;11.40;;;6.37;;
80408;SDS011;69741;49.464;10.986;2023-04-30T06:02:38;10.77;;;6.10;;
80408;SDS011;69741;49.464;10.986;2023-04-30T06:05:03;12.23;;;6.07;;
80408;SDS011;69741;49.464;10.986;2023-04-30T06:07:29;11.35;;;5.80;;
80408;SDS011;69741;49.464;10.986;2023-04-30T06:09:54;10.73;;;5.47;;
80408;SDS011;69741;49.464;10.986;2023-04-30T06:12:20;13.20;;;6.43;;
80408;SDS011;69741;49.464;10.986;2023-04-30T06:14:45;10.02;;;5.50;;
80408;SDS011;69741;49.464;10.986;2023-04-30T06:17:11;13.37;;;5.70;;
80408;SDS011;69741;49.464;10.986;2023-04-30T06:19:36;10.95;;;6.32;;
80408;SDS011;69741;49.464;10.986;2023-04-30T06:22:02;11.95;;;5.95;;
80408;SDS011;69741;49.464;10.986;2023-04-30T06:24:27;10.73;;;5.73;;
80408;SDS011;69741;49.464;10.986;2023-04-30T06:26:54;11.38;;;6.10;;
80408;SDS011;69741;49.464;10.986;2023-04-30T06:29:19;12.83;;;6.20;;
80408;SDS011;69741;49.464;10.986;2023-04-30T06:31:44;10.20;;;5.60;;
80408;SDS011;69741;49.464;10.986;2023-04-30T06:34:09;9.87;;;6.33;;
80408;SDS011;69741;49.464;10.986;2023-04-30T06:36:34;10.57;;;5.22;;
80408;SDS011;69741;49.464;10.986;2023-04-30T06:39:00;11.20;;;5.20;;
80408;SDS011;69741;49.464;10.986;2023-04-30T06:41:25;13.38;;;5.63;;
80408;SDS011;69741;49.464;10.986;2023-04-30T06:43:50;9.50;;;4.60;;
80408;SDS011;69741;49.464;10.986;2023-04-30T06:46:15;13.27;;;4.63;;
80408;SDS011;69741;49.464;10.986;2023-04-30T06:48:40;12.95;;;5.85;;
80408;SDS011;69741;49.464;10.986;2023-04-30T06:51:05;9.00;;;4.67;;
80408;SDS011;69741;49.464;10.986;2023-04-30T06:53:31;10.13;;;4.87;;
80408;SDS011;69741;49.464;10.986;2023-04-30T06:55:56;11.47;;;5.10;;
80408;SDS011;69741;49.464;10.986;2023-04-30T06:58:21;10.60;;;5.47;;
80408;SDS011;69741;49.464;10.986;2023-04-30T07:00:46;11.73;;;5.63;;
80408;SDS011;69741;49.464;10.986;2023-04-30T07:03:12;11.27;;;5.27;;
80408;SDS011;69741;49.464;10.986;2023-04-30T07:05:37;9.52;;;4.75;;
80408;SDS011;69741;49.464;10.986;2023-04-30T07:08:03;8.77;;;5.13;;
80408;SDS011;69741;49.464;10.986;2023-04-30T07:10:28;9.68;;;5.10;;
80408;SDS011;69741;49.464;10.986;2023-04-30T07:12:54;8.75;;;4.88;;
80408;SDS011;69741;49.464;10.986;2023-04-30T07:15:19;9.77;;;4.88;;
80408;SDS011;69741;49.464;10.986;2023-04-30T07:17:44;10.48;;;5.65;;
80408;SDS011;69741;49.464;10.986;2023-04-30T07:20:09;9.23;;;4.95;;
80408;SDS011;69741;49.464;10.986;2023-04-30T07:22:35;9.65;;;5.20;;
80408;SDS011;69741;49.464;10.986;2023-04-30T07:25:00;11.90;;;5.90;;
80408;SDS011;69741;49.464;10.986;2023-04-30T07:27:26;10.30;;;5.45;;
80408;SDS011;69741;49.464;10.986;2023-04-30T07:29:52;10.88;;;5.03;;
80408;SDS011;69741;49.464;10.986;2023-04-30T07:32:17;9.00;;;5.50;;
80408;SDS011;69741;49.464;10.986;2023-04-30T07:34:42;9.97;;;5.03;;
80408;SDS011;69741;49.464;10.986;2023-04-30T07:37:08;10.67;;;5.73;;
80408;SDS011;69741;49.464;10.986;2023-04-30T07:39:33;11.75;;;5.18;;
80408;SDS011;69741;49.464;10.986;2023-04-30T07:41:59;10.93;;;5.28;;
80408;SDS011;69741;49.464;10.986;2023-04-30T07:44:26;10.13;;;4.63;;
80408;SDS011;69741;49.464;10.986;2023-04-30T07:46:51;8.10;;;4.47;;
80408;SDS011;69741;49.464;10.986;2023-04-30T07:49:16;10.40;;;5.68;;
80408;SDS011;69741;49.464;10.986;2023-04-30T07:51:41;10.30;;;5.70;;
80408;SDS011;69741;49.464;10.986;2023-04-30T07:54:07;10.73;;;5.30;;
80408;SDS011;69741;49.464;10.986;2023-04-30T07:56:32;10.77;;;5.13;;
80408;SDS011;69741;49.464;10.986;2023-04-30T07:58:57;8.13;;;4.80;;
80408;SDS011;69741;49.464;10.986;2023-04-30T08:01:22;7.10;;;4.30;;
80408;SDS011;69741;49.464;10.986;2023-04-30T08:03:47;9.80;;;5.27;;
80408;SDS011;69741;49.464;10.986;2023-04-30T08:06:12;9.50;;;4.70;;
80408;SDS011;69741;49.464;10.986;2023-04-30T08:08:38;8.27;;;4.35;;
80408;SDS011;69741;49.464;10.986;2023-04-30T08:11:03;8.98;;;4.32;;
80408;SDS011;69741;49.464;10.986;2023-04-30T08:13:29;7.68;;;3.47;;
80408;SDS011;69741;49.464;10.986;2023-04-30T08:15:54;7.03;;;3.85;;
80408;SDS011;69741;49.464;10.986;2023-04-30T08:18:19;7.40;;;3.63;;
80408;SDS011;69741;49.464;10.986;2023-04-30T08:20:45;7.68;;;3.50;;
80408;SDS011;69741;49.464;10.986;2023-04-30T08:23:10;6.68;;;3.63;;
80408;SDS011;69741;49.464;10.986;2023-04-30T08:25:35;6.83;;;3.47;;
80408;SDS011;69741;49.464;10.986;2023-04-30T08:28:01;7.13;;;3.67;;
80408;SDS011;69741;49.464;10.986;2023-04-30T08:30:26;7.15;;;3.80;;
80408;SDS011;69741;49.464;10.986;2023-04-30T08:32:51;6.00;;;3.23;;
80408;SDS011;69741;49.464;10.986;2023-04-30T08:35:16;5.77;;;3.07;;
80408;SDS011;69741;49.464;10.986;2023-04-30T08:37:42;5.03;;;2.90;;
80408;SDS011;69741;49.464;10.986;2023-04-30T08:40:07;4.80;;;2.43;;
80408;SDS011;69741;49.464;10.986;2023-04-30T08:42:35;5.32;;;2.72;;
80408;SDS011;69741;49.464;10.986;2023-04-30T08:45:00;7.22;;;3.22;;
80408;SDS011;69741;49.464;10.986;2023-04-30T08:47:27;6.32;;;2.63;;
80408;SDS011;69741;49.464;10.986;2023-04-30T08:49:52;5.43;;;2.63;;
80408;SDS011;69741;49.464;10.986;2023-04-30T08:52:17;6.13;;;3.00;;
80408;SDS011;69741;49.464;10.986;2023-04-30T08:54:43;5.55;;;2.70;;
80408;SDS011;69741;49.464;10.986;2023-04-30T08:57:08;5.77;;;2.80;;
80408;SDS011;69741;49.464;10.986;2023-04-30T08:59:34;6.25;;;2.33;;
80408;SDS011;69741;49.464;10.986;2023-04-30T09:01:59;6.63;;;2.50;;
80408;SDS011;69741;49.464;10.986;2023-04-30T09:04:25;5.40;;;2.70;;
80408;SDS011;69741;49.464;10.986;2023-04-30T09:06:53;5.15;;;2.50;;
80408;SDS011;69741;49.464;10.986;2023-04-30T09:09:26;5.65;;;2.53;;
80408;SDS011;69741;49.464;10.986;2023-04-30T09:11:51;5.88;;;2.80;;
80408;SDS011;69741;49.464;10.986;2023-04-30T09:14:21;6.10;;;2.67;;
80408;SDS011;69741;49.464;10.986;2023-04-30T09:16:48;5.85;;;2.45;;
80408;SDS011;69741;49.464;10.986;2023-04-30T09:19:26;5.55;;;2.00;;
80408;SDS011;69741;49.464;10.986;2023-04-30T09:21:52;5.65;;;2.10;;
80408;SDS011;69741;49.464;10.986;2023-04-30T09:24:18;5.50;;;2.37;;
80408;SDS011;69741;49.464;10.986;2023-04-30T09:26:44;5.63;;;1.98;;
80408;SDS011;69741;49.464;10.986;2023-04-30T09:29:11;4.97;;;2.38;;
80408;SDS011;69741;49.464;10.986;2023-04-30T09:31:37;6.97;;;2.13;;
80408;SDS011;69741;49.464;10.986;2023-04-30T09:34:03;5.18;;;2.38;;
80408;SDS011;69741;49.464;10.986;2023-04-30T09:36:28;4.70;;;1.90;;
80408;SDS011;69741;49.464;10.986;2023-04-30T09:38:54;6.15;;;2.53;;
80408;SDS011;69741;49.464;10.986;2023-04-30T09:41:23;5.47;;;2.67;;
80408;SDS011;69741;49.464;10.986;2023-04-30T09:43:48;6.00;;;2.15;;
80408;SDS011;69741;49.464;10.986;2023-04-30T09:46:14;6.97;;;2.03;;
80408;SDS011;69741;49.464;10.986;2023-04-30T09:48:42;4.90;;;2.17;;
80408;SDS011;69741;49.464;10.986;2023-04-30T09:51:08;4.10;;;1.58;;
80408;SDS011;69741;49.464;10.986;2023-04-30T09:53:35;5.53;;;2.30;;
80408;SDS011;69741;49.464;10.986;2023-04-30T09:56:01;6.13;;;3.00;;
80408;SDS011;69741;49.464;10.986;2023-04-30T09:58:30;5.90;;;2.22;;
80408;SDS011;69741;49.464;10.986;2023-04-30T10:01:00;5.78;;;2.53;;
80408;SDS011;69741;49.464;10.986;2023-04-30T10:03:27;5.15;;;2.22;;
80408;SDS011;69741;49.464;10.986;2023-04-30T10:05:53;4.43;;;2.40;;
80408;SDS011;69741;49.464;10.986;2023-04-30T10:10:44;5.20;;;2.33;;
80408;SDS011;69741;49.464;10.986;2023-04-30T10:13:13;5.03;;;1.92;;
80408;SDS011;69741;49.464;10.986;2023-04-30T10:15:39;4.82;;;2.25;;
80408;SDS011;69741;49.464;10.986;2023-04-30T10:18:12;10.60;;;3.47;;
80408;SDS011;69741;49.464;10.986;2023-04-30T10:20:39;6.65;;;2.65;;
80408;SDS011;69741;49.464;10.986;2023-04-30T10:23:05;3.65;;;1.85;;
80408;SDS011;69741;49.464;10.986;2023-04-30T10:25:31;5.22;;;2.58;;
80408;SDS011;69741;49.464;10.986;2023-04-30T10:27:56;6.82;;;2.15;;
80408;SDS011;69741;49.464;10.986;2023-04-30T10:30:21;6.10;;;1.67;;
80408;SDS011;69741;49.464;10.986;2023-04-30T10:32:50;3.40;;;1.40;;
80408;SDS011;69741;49.464;10.986;2023-04-30T10:35:18;4.93;;;1.60;;
80408;SDS011;69741;49.464;10.986;2023-04-30T10:37:50;4.63;;;1.90;;
80408;SDS011;69741;49.464;10.986;2023-04-30T10:40:17;3.90;;;1.60;;
80408;SDS011;69741;49.464;10.986;2023-04-30T10:42:49;4.55;;;2.00;;
80408;SDS011;69741;49.464;10.986;2023-04-30T10:45:14;3.70;;;1.60;;
80408;SDS011;69741;49.464;10.986;2023-04-30T10:47:43;6.03;;;2.05;;
80408;SDS011;69741;49.464;10.986;2023-04-30T10:50:11;4.13;;;2.03;;
80408;SDS011;69741;49.464;10.986;2023-04-30T10:52:37;4.35;;;1.92;;
80408;SDS011;69741;49.464;10.986;2023-04-30T10:55:06;5.45;;;2.17;;
80408;SDS011;69741;49.464;10.986;2023-04-30T10:57:36;4.80;;;2.40;;
80408;SDS011;69741;49.464;10.986;2023-04-30T11:02:41;4.72;;;1.77;;
80408;SDS011;69741;49.464;10.986;2023-04-30T11:05:25;4.00;;;1.60;;
80408;SDS011;69741;49.464;10.986;2023-04-30T11:07:56;3.80;;;1.83;;
80408;SDS011;69741;49.464;10.986;2023-04-30T11:10:22;5.68;;;2.13;;
80408;SDS011;69741;49.464;10.986;2023-04-30T11:12:48;5.15;;;2.20;;
80408;SDS011;69741;49.464;10.986;2023-04-30T11:15:14;4.00;;;1.90;;
80408;SDS011;69741;49.464;10.986;2023-04-30T11:17:42;4.00;;;1.92;;
80408;SDS011;69741;49.464;10.986;2023-04-30T11:20:07;5.60;;;2.10;;
80408;SDS011;69741;49.464;10.986;2023-04-30T11:22:36;6.95;;;1.80;;
80408;SDS011;69741;49.464;10.986;2023-04-30T11:25:07;4.30;;;2.05;;
80408;SDS011;69741;49.464;10.986;2023-04-30T11:27:34;16.15;;;1.83;;
80408;SDS011;69741;49.464;10.986;2023-04-30T11:30:00;4.43;;;1.88;;
80408;SDS011;69741;49.464;10.986;2023-04-30T11:32:30;4.38;;;2.35;;
80408;SDS011;69741;49.464;10.986;2023-04-30T11:34:57;5.38;;;1.83;;
80408;SDS011;69741;49.464;10.986;2023-04-30T11:37:32;4.15;;;1.42;;
80408;SDS011;69741;49.464;10.986;2023-04-30T11:40:02;4.80;;;2.08;;
80408;SDS011;69741;49.464;10.986;2023-04-30T11:42:28;4.25;;;2.17;;
80408;SDS011;69741;49.464;10.986;2023-04-30T11:45:08;3.90;;;2.03;;
80408;SDS011;69741;49.464;10.986;2023-04-30T11:50:06;4.00;;;2.03;;
80408;SDS011;69741;49.464;10.986;2023-04-30T11:52:31;4.20;;;1.75;;
80408;SDS011;69741;49.464;10.986;2023-04-30T11:54:56;3.80;;;2.03;;
80408;SDS011;69741;49.464;10.986;2023-04-30T11:57:21;3.60;;;2.20;;
80408;SDS011;69741;49.464;10.986;2023-04-30T11:59:47;5.43;;;1.90;;
80408;SDS011;69741;49.464;10.986;2023-04-30T12:02:13;3.95;;;2.20;;
80408;SDS011;69741;49.464;10.986;2023-04-30T12:04:39;6.35;;;1.67;;
80408;SDS011;69741;49.464;10.986;2023-04-30T12:07:06;4.13;;;1.85;;
80408;SDS011;69741;49.464;10.986;2023-04-30T12:09:32;3.75;;;1.73;;
80408;SDS011;69741;49.464;10.986;2023-04-30T12:12:24;4.40;;;2.38;;
80408;SDS011;69741;49.464;10.986;2023-04-30T12:14:50;4.15;;;2.47;;
80408;SDS011;69741;49.464;10.986;2023-04-30T12:17:29;4.20;;;2.27;;
80408;SDS011;69741;49.464;10.986;2023-04-30T12:19:54;4.63;;;2.80;;
80408;SDS011;69741;49.464;10.986;2023-04-30T12:22:19;4.33;;;2.37;;
80408;SDS011;69741;49.464;10.986;2023-04-30T12:24:44;7.23;;;2.10;;
80408;SDS011;69741;49.464;10.986;2023-04-30T12:27:10;3.92;;;2.10;;
80408;SDS011;69741;49.464;10.986;2023-04-30T12:29:36;3.33;;;1.52;;
80408;SDS011;69741;49.464;10.986;2023-04-30T12:32:04;3.90;;;1.80;;
80408;SDS011;69741;49.464;10.986;2023-04-30T12:34:29;3.30;;;1.55;;
80408;SDS011;69741;49.464;10.986;2023-04-30T12:36:56;5.15;;;2.42;;
80408;SDS011;69741;49.464;10.986;2023-04-30T12:39:22;4.47;;;1.80;;
80408;SDS011;69741;49.464;10.986;2023-04-30T12:41:47;4.93;;;2.15;;
80408;SDS011;69741;49.464;10.986;2023-04-30T12:44:13;5.10;;;2.60;;
80408;SDS011;69741;49.464;10.986;2023-04-30T12:46:39;5.15;;;1.92;;
80408;SDS011;69741;49.464;10.986;2023-04-30T12:49:04;3.38;;;1.42;;
80408;SDS011;69741;49.464;10.986;2023-04-30T12:51:31;5.05;;;1.80;;
80408;SDS011;69741;49.464;10.986;2023-04-30T12:53:57;3.58;;;1.42;;
80408;SDS011;69741;49.464;10.986;2023-04-30T12:56:22;3.80;;;1.70;;
80408;SDS011;69741;49.464;10.986;2023-04-30T12:58:47;4.00;;;1.65;;
80408;SDS011;69741;49.464;10.986;2023-04-30T13:01:17;3.80;;;1.65;;
80408;SDS011;69741;49.464;10.986;2023-04-30T13:03:43;3.70;;;2.47;;
80408;SDS011;69741;49.464;10.986;2023-04-30T13:06:08;5.53;;;1.70;;
80408;SDS011;69741;49.464;10.986;2023-04-30T13:08:34;4.10;;;2.40;;
80408;SDS011;69741;49.464;10.986;2023-04-30T13:10:59;4.33;;;2.10;;
80408;SDS011;69741;49.464;10.986;2023-04-30T13:13:25;3.35;;;1.33;;
80408;SDS011;69741;49.464;10.986;2023-04-30T13:15:50;4.67;;;2.00;;
80408;SDS011;69741;49.464;10.986;2023-04-30T13:18:15;4.63;;;2.73;;
80408;SDS011;69741;49.464;10.986;2023-04-30T13:20:40;4.97;;;2.90;;
80408;SDS011;69741;49.464;10.986;2023-04-30T13:23:05;3.28;;;1.58;;
80408;SDS011;69741;49.464;10.986;2023-04-30T13:25:31;5.00;;;2.47;;
80408;SDS011;69741;49.464;10.986;2023-04-30T13:27:56;2.90;;;1.42;;
80408;SDS011;69741;49.464;10.986;2023-04-30T13:30:22;4.37;;;1.80;;
80408;SDS011;69741;49.464;10.986;2023-04-30T13:32:47;3.67;;;1.73;;
80408;SDS011;69741;49.464;10.986;2023-04-30T13:35:12;5.07;;;2.40;;
80408;SDS011;69741;49.464;10.986;2023-04-30T13:37:38;3.10;;;1.40;;
80408;SDS011;69741;49.464;10.986;2023-04-30T13:40:06;3.90;;;1.77;;
80408;SDS011;69741;49.464;10.986;2023-04-30T13:42:32;3.10;;;1.45;;
80408;SDS011;69741;49.464;10.986;2023-04-30T13:44:57;4.97;;;1.90;;
80408;SDS011;69741;49.464;10.986;2023-04-30T13:47:22;3.38;;;1.60;;
80408;SDS011;69741;49.464;10.986;2023-04-30T13:49:47;3.90;;;1.67;;
80408;SDS011;69741;49.464;10.986;2023-04-30T13:52:12;3.80;;;1.75;;
80408;SDS011;69741;49.464;10.986;2023-04-30T13:54:38;3.20;;;1.45;;
80408;SDS011;69741;49.464;10.986;2023-04-30T13:57:03;3.42;;;1.50;;
80408;SDS011;69741;49.464;10.986;2023-04-30T13:59:28;3.40;;;1.67;;
80408;SDS011;69741;49.464;10.986;2023-04-30T14:01:53;3.57;;;1.40;;
80408;SDS011;69741;49.464;10.986;2023-04-30T14:04:18;3.60;;;1.90;;
80408;SDS011;69741;49.464;10.986;2023-04-30T14:06:44;4.27;;;1.50;;
80408;SDS011;69741;49.464;10.986;2023-04-30T14:09:09;3.67;;;1.40;;
80408;SDS011;69741;49.464;10.986;2023-04-30T14:11:34;4.35;;;1.25;;
80408;SDS011;69741;49.464;10.986;2023-04-30T14:14:00;3.60;;;1.73;;
80408;SDS011;69741;49.464;10.986;2023-04-30T14:16:25;3.70;;;1.30;;
80408;SDS011;69741;49.464;10.986;2023-04-30T14:18:50;3.53;;;1.45;;
80408;SDS011;69741;49.464;10.986;2023-04-30T14:21:15;3.07;;;1.50;;
80408;SDS011;69741;49.464;10.986;2023-04-30T14:23:40;4.10;;;1.50;;
80408;SDS011;69741;49.464;10.986;2023-04-30T14:26:05;3.20;;;1.50;;
80408;SDS011;69741;49.464;10.986;2023-04-30T14:28:31;4.93;;;1.53;;
80408;SDS011;69741;49.464;10.986;2023-04-30T14:30:56;3.77;;;1.40;;
80408;SDS011;69741;49.464;10.986;2023-04-30T14:33:21;5.07;;;1.70;;
80408;SDS011;69741;49.464;10.986;2023-04-30T14:35:46;3.20;;;1.53;;
80408;SDS011;69741;49.464;10.986;2023-04-30T14:38:12;3.33;;;1.50;;
80408;SDS011;69741;49.464;10.986;2023-04-30T14:40:37;2.65;;;1.23;;
80408;SDS011;69741;49.464;10.986;2023-04-30T14:43:02;3.47;;;1.65;;
80408;SDS011;69741;49.464;10.986;2023-04-30T14:45:27;3.50;;;1.27;;
80408;SDS011;69741;49.464;10.986;2023-04-30T14:47:53;4.95;;;2.28;;